sensor_id;sensor_type;location;lat;lon;timestamp;temperature;humidity
51837;DHT22;38941;53.254;6.600;2023-07-31T00:00:38;16.50;99.90
51837;DHT22;38941;53.254;6.600;2023-07-31T00:02:39;16.50;99.90
51837;DHT22;38941;53.254;6.600;2023-07-31T00:04:40;16.50;99.90
51837;DHT22;38941;53.254;6.600;2023-07-31T00:06:41;16.50;99.90
51837;DHT22;38941;53.254;6.600;2023-07-31T00:08:41;16.50;99.90
51837;DHT22;38941;53.254;6.600;2023-07-31T00:10:42;16.50;99.90
51837;DHT22;38941;53.254;6.600;2023-07-31T00:12:44;16.50;99.90
51837;DHT22;38941;53.254;6.600;2023-07-31T00:14:45;16.50;99.90
51837;DHT22;38941;53.254;6.600;2023-07-31T00:16:47;16.50;99.90
51837;DHT22;38941;53.254;6.600;2023-07-31T00:18:48;16.40;99.90
51837;DHT22;38941;53.254;6.600;2023-07-31T00:20:48;16.40;99.90
51837;DHT22;38941;53.254;6.600;2023-07-31T00:22:49;16.40;99.90
51837;DHT22;38941;53.254;6.600;2023-07-31T00:24:50;16.40;99.90
51837;DHT22;38941;53.254;6.600;2023-07-31T00:26:50;16.40;99.90
51837;DHT22;38941;53.254;6.600;2023-07-31T00:28:51;16.40;99.90
51837;DHT22;38941;53.254;6.600;2023-07-31T00:30:52;16.40;99.90
51837;DHT22;38941;53.254;6.600;2023-07-31T00:32:52;16.30;99.90
51837;DHT22;38941;53.254;6.600;2023-07-31T00:34:53;16.20;99.90
51837;DHT22;38941;53.254;6.600;2023-07-31T00:36:54;16.20;99.90
51837;DHT22;38941;53.254;6.600;2023-07-31T00:38:54;16.20;99.90
51837;DHT22;38941;53.254;6.600;2023-07-31T00:40:55;16.10;99.90
51837;DHT22;38941;53.254;6.600;2023-07-31T00:42:56;16.10;99.90
51837;DHT22;38941;53.254;6.600;2023-07-31T00:44:57;16.10;99.90
51837;DHT22;38941;53.254;6.600;2023-07-31T00:46:57;16.10;99.90
51837;DHT22;38941;53.254;6.600;2023-07-31T00:48:59;16.10;99.90
51837;DHT22;38941;53.254;6.600;2023-07-31T00:51:01;16.10;99.90
51837;DHT22;38941;53.254;6.600;2023-07-31T00:53:01;16.20;99.90
51837;DHT22;38941;53.254;6.600;2023-07-31T00:55:03;16.10;99.90
51837;DHT22;38941;53.254;6.600;2023-07-31T00:57:04;16.10;99.90
51837;DHT22;38941;53.254;6.600;2023-07-31T00:59:05;16.10;99.90
51837;DHT22;38941;53.254;6.600;2023-07-31T01:01:06;16.10;99.90
51837;DHT22;38941;53.254;6.600;2023-07-31T01:03:06;16.10;99.90
51837;DHT22;38941;53.254;6.600;2023-07-31T01:05:07;16.10;99.90
51837;DHT22;38941;53.254;6.600;2023-07-31T01:07:18;16.10;99.90
51837;DHT22;38941;53.254;6.600;2023-07-31T01:11:43;16.00;99.90
51837;DHT22;38941;53.254;6.600;2023-07-31T01:13:46;15.90;99.90
51837;DHT22;38941;53.254;6.600;2023-07-31T01:15:47;15.90;99.90
51837;DHT22;38941;53.254;6.600;2023-07-31T01:17:48;15.90;99.90
51837;DHT22;38941;53.254;6.600;2023-07-31T01:19:49;15.90;99.90
51837;DHT22;38941;53.254;6.600;2023-07-31T01:22:16;15.80;99.90
51837;DHT22;38941;53.254;6.600;2023-07-31T01:24:29;15.90;99.90
51837;DHT22;38941;53.254;6.600;2023-07-31T01:26:34;15.80;99.90
51837;DHT22;38941;53.254;6.600;2023-07-31T01:28:55;15.80;99.90
51837;DHT22;38941;53.254;6.600;2023-07-31T01:30:58;15.80;99.90
51837;DHT22;38941;53.254;6.600;2023-07-31T01:33:01;15.80;99.90
51837;DHT22;38941;53.254;6.600;2023-07-31T01:35:07;15.80;99.90
51837;DHT22;38941;53.254;6.600;2023-07-31T01:37:08;15.80;99.90
51837;DHT22;38941;53.254;6.600;2023-07-31T01:39:09;15.80;99.90
51837;DHT22;38941;53.254;6.600;2023-07-31T01:41:09;15.90;99.90
51837;DHT22;38941;53.254;6.600;2023-07-31T01:43:10;15.80;99.90
51837;DHT22;38941;53.254;6.600;2023-07-31T01:45:11;15.90;99.90
51837;DHT22;38941;53.254;6.600;2023-07-31T01:47:12;15.90;99.90
51837;DHT22;38941;53.254;6.600;2023-07-31T01:49:13;15.80;99.90
51837;DHT22;38941;53.254;6.600;2023-07-31T01:51:13;15.80;99.90
51837;DHT22;38941;53.254;6.600;2023-07-31T01:53:14;15.90;99.90
51837;DHT22;38941;53.254;6.600;2023-07-31T01:55:15;15.80;99.90
51837;DHT22;38941;53.254;6.600;2023-07-31T01:57:15;15.80;99.90
51837;DHT22;38941;53.254;6.600;2023-07-31T01:59:16;15.80;99.90
51837;DHT22;38941;53.254;6.600;2023-07-31T02:01:17;15.80;99.90
51837;DHT22;38941;53.254;6.600;2023-07-31T02:03:17;15.80;99.90
51837;DHT22;38941;53.254;6.600;2023-07-31T02:05:19;15.80;99.90
51837;DHT22;38941;53.254;6.600;2023-07-31T02:07:20;15.80;99.90
51837;DHT22;38941;53.254;6.600;2023-07-31T02:09:20;15.80;99.90
51837;DHT22;38941;53.254;6.600;2023-07-31T02:11:21;15.80;99.90
51837;DHT22;38941;53.254;6.600;2023-07-31T02:13:22;15.80;99.90
51837;DHT22;38941;53.254;6.600;2023-07-31T02:15:22;15.80;99.90
51837;DHT22;38941;53.254;6.600;2023-07-31T02:17:23;15.80;99.90
51837;DHT22;38941;53.254;6.600;2023-07-31T02:19:23;15.80;99.90
51837;DHT22;38941;53.254;6.600;2023-07-31T02:21:24;15.80;99.90
51837;DHT22;38941;53.254;6.600;2023-07-31T02:23:25;15.80;99.90
51837;DHT22;38941;53.254;6.600;2023-07-31T02:25:25;15.80;99.90
51837;DHT22;38941;53.254;6.600;2023-07-31T02:27:26;15.80;99.90
51837;DHT22;38941;53.254;6.600;2023-07-31T02:29:28;15.80;99.90
51837;DHT22;38941;53.254;6.600;2023-07-31T02:31:28;15.80;99.90
51837;DHT22;38941;53.254;6.600;2023-07-31T02:33:29;15.80;99.90
51837;DHT22;38941;53.254;6.600;2023-07-31T02:35:29;15.80;99.90
51837;DHT22;38941;53.254;6.600;2023-07-31T02:37:30;15.70;99.90
51837;DHT22;38941;53.254;6.600;2023-07-31T02:39:31;15.80;99.90
51837;DHT22;38941;53.254;6.600;2023-07-31T02:41:32;15.70;99.90
51837;DHT22;38941;53.254;6.600;2023-07-31T02:43:32;15.70;99.90
51837;DHT22;38941;53.254;6.600;2023-07-31T02:45:33;15.70;99.90
51837;DHT22;38941;53.254;6.600;2023-07-31T02:47:34;15.70;99.90
51837;DHT22;38941;53.254;6.600;2023-07-31T02:49:34;15.70;99.90
51837;DHT22;38941;53.254;6.600;2023-07-31T02:51:35;15.70;99.90
51837;DHT22;38941;53.254;6.600;2023-07-31T02:53:36;15.70;99.90
51837;DHT22;38941;53.254;6.600;2023-07-31T02:55:36;15.80;99.90
51837;DHT22;38941;53.254;6.600;2023-07-31T02:57:37;15.80;99.90
51837;DHT22;38941;53.254;6.600;2023-07-31T02:59:38;15.70;99.90
51837;DHT22;38941;53.254;6.600;2023-07-31T03:01:38;15.80;99.90
51837;DHT22;38941;53.254;6.600;2023-07-31T03:03:40;15.70;99.90
51837;DHT22;38941;53.254;6.600;2023-07-31T03:05:41;15.70;99.90
51837;DHT22;38941;53.254;6.600;2023-07-31T03:07:42;15.80;99.90
51837;DHT22;38941;53.254;6.600;2023-07-31T03:09:43;15.70;99.90
51837;DHT22;38941;53.254;6.600;2023-07-31T03:11:43;15.70;99.90
51837;DHT22;38941;53.254;6.600;2023-07-31T03:13:44;15.80;99.90
51837;DHT22;38941;53.254;6.600;2023-07-31T03:15:44;15.70;99.90
51837;DHT22;38941;53.254;6.600;2023-07-31T03:17:45;15.70;99.90
51837;DHT22;38941;53.254;6.600;2023-07-31T03:19:46;15.70;99.90
51837;DHT22;38941;53.254;6.600;2023-07-31T03:21:47;15.70;99.90
51837;DHT22;38941;53.254;6.600;2023-07-31T03:23:47;15.80;99.90
51837;DHT22;38941;53.254;6.600;2023-07-31T03:25:58;15.70;99.90
51837;DHT22;38941;53.254;6.600;2023-07-31T03:27:59;15.70;99.90
51837;DHT22;38941;53.254;6.600;2023-07-31T03:30:00;15.70;99.90
51837;DHT22;38941;53.254;6.600;2023-07-31T03:32:01;15.70;99.90
51837;DHT22;38941;53.254;6.600;2023-07-31T03:34:02;15.70;99.90
51837;DHT22;38941;53.254;6.600;2023-07-31T03:36:03;16.50;99.90
51837;DHT22;38941;53.254;6.600;2023-07-31T03:38:03;15.70;99.90
51837;DHT22;38941;53.254;6.600;2023-07-31T03:40:05;15.70;99.90
51837;DHT22;38941;53.254;6.600;2023-07-31T03:42:06;15.70;99.90
51837;DHT22;38941;53.254;6.600;2023-07-31T03:44:06;15.70;99.90
51837;DHT22;38941;53.254;6.600;2023-07-31T03:46:08;15.70;99.90
51837;DHT22;38941;53.254;6.600;2023-07-31T03:48:08;15.70;99.90
51837;DHT22;38941;53.254;6.600;2023-07-31T03:50:09;15.60;99.90
51837;DHT22;38941;53.254;6.600;2023-07-31T03:52:10;15.60;99.90
51837;DHT22;38941;53.254;6.600;2023-07-31T03:54:10;15.60;99.90
51837;DHT22;38941;53.254;6.600;2023-07-31T03:56:11;15.60;99.90
51837;DHT22;38941;53.254;6.600;2023-07-31T03:58:12;15.60;99.90
51837;DHT22;38941;53.254;6.600;2023-07-31T04:00:13;15.60;99.90
51837;DHT22;38941;53.254;6.600;2023-07-31T04:02:14;15.60;99.90
51837;DHT22;38941;53.254;6.600;2023-07-31T04:04:14;15.60;99.90
51837;DHT22;38941;53.254;6.600;2023-07-31T04:06:15;15.60;99.90
51837;DHT22;38941;53.254;6.600;2023-07-31T04:08:18;15.60;99.90
51837;DHT22;38941;53.254;6.600;2023-07-31T04:10:19;15.70;99.90
51837;DHT22;38941;53.254;6.600;2023-07-31T04:12:19;15.60;99.90
51837;DHT22;38941;53.254;6.600;2023-07-31T04:14:20;15.60;99.90
51837;DHT22;38941;53.254;6.600;2023-07-31T04:16:21;15.60;99.90
51837;DHT22;38941;53.254;6.600;2023-07-31T04:18:24;15.60;99.90
51837;DHT22;38941;53.254;6.600;2023-07-31T04:20:25;15.60;99.90
51837;DHT22;38941;53.254;6.600;2023-07-31T04:22:25;15.60;99.90
51837;DHT22;38941;53.254;6.600;2023-07-31T04:24:26;15.60;99.90
51837;DHT22;38941;53.254;6.600;2023-07-31T04:26:27;15.60;99.90
51837;DHT22;38941;53.254;6.600;2023-07-31T04:28:27;15.60;99.90
51837;DHT22;38941;53.254;6.600;2023-07-31T04:30:28;15.60;99.90
51837;DHT22;38941;53.254;6.600;2023-07-31T04:32:29;15.80;99.90
51837;DHT22;38941;53.254;6.600;2023-07-31T04:34:30;15.60;99.90
51837;DHT22;38941;53.254;6.600;2023-07-31T04:36:30;15.60;99.90
51837;DHT22;38941;53.254;6.600;2023-07-31T04:38:31;15.60;99.90
51837;DHT22;38941;53.254;6.600;2023-07-31T04:40:32;15.70;99.90
51837;DHT22;38941;53.254;6.600;2023-07-31T04:42:33;15.70;99.90
51837;DHT22;38941;53.254;6.600;2023-07-31T04:44:35;15.70;99.90
51837;DHT22;38941;53.254;6.600;2023-07-31T04:46:36;15.70;99.90
51837;DHT22;38941;53.254;6.600;2023-07-31T04:48:37;15.70;99.90
51837;DHT22;38941;53.254;6.600;2023-07-31T04:50:38;15.70;99.90
51837;DHT22;38941;53.254;6.600;2023-07-31T04:52:39;15.70;99.90
51837;DHT22;38941;53.254;6.600;2023-07-31T04:54:40;15.60;99.90
51837;DHT22;38941;53.254;6.600;2023-07-31T04:56:41;15.70;99.90
51837;DHT22;38941;53.254;6.600;2023-07-31T04:58:42;15.70;99.90
51837;DHT22;38941;53.254;6.600;2023-07-31T05:00:43;15.60;99.90
51837;DHT22;38941;53.254;6.600;2023-07-31T05:02:44;15.60;99.90
51837;DHT22;38941;53.254;6.600;2023-07-31T05:04:44;15.40;99.90
51837;DHT22;38941;53.254;6.600;2023-07-31T05:06:45;15.70;99.90
51837;DHT22;38941;53.254;6.600;2023-07-31T05:08:46;15.60;99.90
51837;DHT22;38941;53.254;6.600;2023-07-31T05:10:46;15.70;99.90
51837;DHT22;38941;53.254;6.600;2023-07-31T05:12:47;15.70;99.90
51837;DHT22;38941;53.254;6.600;2023-07-31T05:14:48;15.70;99.90
51837;DHT22;38941;53.254;6.600;2023-07-31T05:16:49;15.60;99.90
51837;DHT22;38941;53.254;6.600;2023-07-31T05:18:50;15.60;99.90
51837;DHT22;38941;53.254;6.600;2023-07-31T05:20:51;15.70;99.90
51837;DHT22;38941;53.254;6.600;2023-07-31T05:22:52;15.70;99.90
51837;DHT22;38941;53.254;6.600;2023-07-31T05:24:52;15.60;99.90
51837;DHT22;38941;53.254;6.600;2023-07-31T05:26:54;15.60;99.90
51837;DHT22;38941;53.254;6.600;2023-07-31T05:28:55;16.40;99.90
51837;DHT22;38941;53.254;6.600;2023-07-31T05:31:03;15.70;99.90
51837;DHT22;38941;53.254;6.600;2023-07-31T05:33:04;15.70;99.90
51837;DHT22;38941;53.254;6.600;2023-07-31T05:35:05;15.70;99.90
51837;DHT22;38941;53.254;6.600;2023-07-31T05:37:06;15.70;99.90
51837;DHT22;38941;53.254;6.600;2023-07-31T05:39:06;15.70;99.90
51837;DHT22;38941;53.254;6.600;2023-07-31T05:41:08;15.70;99.90
51837;DHT22;38941;53.254;6.600;2023-07-31T05:43:09;15.80;99.90
51837;DHT22;38941;53.254;6.600;2023-07-31T05:45:10;15.80;99.90
51837;DHT22;38941;53.254;6.600;2023-07-31T05:47:11;15.80;99.90
51837;DHT22;38941;53.254;6.600;2023-07-31T05:49:11;15.80;99.90
51837;DHT22;38941;53.254;6.600;2023-07-31T05:51:12;15.80;99.90
51837;DHT22;38941;53.254;6.600;2023-07-31T05:53:13;15.80;99.90
51837;DHT22;38941;53.254;6.600;2023-07-31T05:55:14;15.80;99.90
51837;DHT22;38941;53.254;6.600;2023-07-31T05:57:14;15.80;99.90
51837;DHT22;38941;53.254;6.600;2023-07-31T05:59:16;15.90;99.90
51837;DHT22;38941;53.254;6.600;2023-07-31T06:01:17;15.90;99.90
51837;DHT22;38941;53.254;6.600;2023-07-31T06:03:17;15.90;99.90
51837;DHT22;38941;53.254;6.600;2023-07-31T06:05:18;15.90;99.90
51837;DHT22;38941;53.254;6.600;2023-07-31T06:07:19;15.90;99.90
51837;DHT22;38941;53.254;6.600;2023-07-31T06:09:20;16.00;99.90
51837;DHT22;38941;53.254;6.600;2023-07-31T06:11:21;16.00;99.90
51837;DHT22;38941;53.254;6.600;2023-07-31T06:13:21;16.00;99.90
51837;DHT22;38941;53.254;6.600;2023-07-31T06:15:22;16.00;99.90
51837;DHT22;38941;53.254;6.600;2023-07-31T06:17:23;16.00;99.90
51837;DHT22;38941;53.254;6.600;2023-07-31T06:19:23;16.00;99.90
51837;DHT22;38941;53.254;6.600;2023-07-31T06:21:24;16.00;99.90
51837;DHT22;38941;53.254;6.600;2023-07-31T06:23:25;16.00;99.90
51837;DHT22;38941;53.254;6.600;2023-07-31T06:25:26;16.10;99.90
51837;DHT22;38941;53.254;6.600;2023-07-31T06:27:27;16.00;99.90
51837;DHT22;38941;53.254;6.600;2023-07-31T06:29:27;16.10;99.90
51837;DHT22;38941;53.254;6.600;2023-07-31T06:31:28;16.10;99.90
51837;DHT22;38941;53.254;6.600;2023-07-31T06:33:29;16.10;99.90
51837;DHT22;38941;53.254;6.600;2023-07-31T06:35:29;16.10;99.90
51837;DHT22;38941;53.254;6.600;2023-07-31T06:37:30;16.30;99.90
51837;DHT22;38941;53.254;6.600;2023-07-31T06:39:31;16.20;99.90
51837;DHT22;38941;53.254;6.600;2023-07-31T06:41:31;16.20;99.90
51837;DHT22;38941;53.254;6.600;2023-07-31T06:43:32;16.20;99.90
51837;DHT22;38941;53.254;6.600;2023-07-31T06:45:33;16.30;99.90
51837;DHT22;38941;53.254;6.600;2023-07-31T06:47:36;16.30;99.90
51837;DHT22;38941;53.254;6.600;2023-07-31T06:49:36;16.30;99.90
51837;DHT22;38941;53.254;6.600;2023-07-31T06:51:37;16.30;99.90
51837;DHT22;38941;53.254;6.600;2023-07-31T06:53:38;16.40;99.90
51837;DHT22;38941;53.254;6.600;2023-07-31T06:55:39;16.40;99.90
51837;DHT22;38941;53.254;6.600;2023-07-31T06:57:40;16.50;99.90
51837;DHT22;38941;53.254;6.600;2023-07-31T06:59:40;16.60;99.90
51837;DHT22;38941;53.254;6.600;2023-07-31T07:01:41;16.60;99.90
51837;DHT22;38941;53.254;6.600;2023-07-31T07:03:42;16.70;99.90
51837;DHT22;38941;53.254;6.600;2023-07-31T07:05:43;16.80;99.90
51837;DHT22;38941;53.254;6.600;2023-07-31T07:07:43;16.80;99.90
51837;DHT22;38941;53.254;6.600;2023-07-31T07:09:44;16.80;99.90
51837;DHT22;38941;53.254;6.600;2023-07-31T07:11:45;16.90;99.90
51837;DHT22;38941;53.254;6.600;2023-07-31T07:13:45;17.00;99.90
51837;DHT22;38941;53.254;6.600;2023-07-31T07:15:49;17.00;99.90
51837;DHT22;38941;53.254;6.600;2023-07-31T07:17:50;17.10;99.90
51837;DHT22;38941;53.254;6.600;2023-07-31T07:19:50;17.10;99.90
51837;DHT22;38941;53.254;6.600;2023-07-31T07:21:51;17.10;99.90
51837;DHT22;38941;53.254;6.600;2023-07-31T07:23:52;17.10;99.90
51837;DHT22;38941;53.254;6.600;2023-07-31T07:25:53;17.10;99.90
51837;DHT22;38941;53.254;6.600;2023-07-31T07:27:53;17.10;99.90
51837;DHT22;38941;53.254;6.600;2023-07-31T07:29:54;17.20;99.90
51837;DHT22;38941;53.254;6.600;2023-07-31T07:31:55;17.20;99.90
51837;DHT22;38941;53.254;6.600;2023-07-31T07:33:55;17.20;99.90
51837;DHT22;38941;53.254;6.600;2023-07-31T07:36:00;17.20;99.90
51837;DHT22;38941;53.254;6.600;2023-07-31T07:38:02;17.20;99.90
51837;DHT22;38941;53.254;6.600;2023-07-31T07:40:04;17.10;99.90
51837;DHT22;38941;53.254;6.600;2023-07-31T07:42:06;17.20;99.90
51837;DHT22;38941;53.254;6.600;2023-07-31T07:44:07;17.10;99.90
51837;DHT22;38941;53.254;6.600;2023-07-31T07:46:08;17.10;99.90
51837;DHT22;38941;53.254;6.600;2023-07-31T07:48:09;17.10;99.90
51837;DHT22;38941;53.254;6.600;2023-07-31T07:50:10;17.10;99.90
51837;DHT22;38941;53.254;6.600;2023-07-31T07:52:11;17.10;99.90
51837;DHT22;38941;53.254;6.600;2023-07-31T07:54:11;17.10;99.90
51837;DHT22;38941;53.254;6.600;2023-07-31T07:56:12;17.10;99.90
51837;DHT22;38941;53.254;6.600;2023-07-31T07:58:13;17.10;99.90
51837;DHT22;38941;53.254;6.600;2023-07-31T08:00:14;17.10;99.90
51837;DHT22;38941;53.254;6.600;2023-07-31T08:02:14;17.10;99.90
51837;DHT22;38941;53.254;6.600;2023-07-31T08:04:15;17.10;99.90
51837;DHT22;38941;53.254;6.600;2023-07-31T08:06:17;17.10;99.90
51837;DHT22;38941;53.254;6.600;2023-07-31T08:08:18;17.10;99.90
51837;DHT22;38941;53.254;6.600;2023-07-31T08:10:20;17.10;99.90
51837;DHT22;38941;53.254;6.600;2023-07-31T08:12:20;17.10;99.90
51837;DHT22;38941;53.254;6.600;2023-07-31T08:14:21;17.10;99.90
51837;DHT22;38941;53.254;6.600;2023-07-31T08:16:22;17.10;99.90
51837;DHT22;38941;53.254;6.600;2023-07-31T08:18:22;17.10;99.90
51837;DHT22;38941;53.254;6.600;2023-07-31T08:20:23;17.10;99.90
51837;DHT22;38941;53.254;6.600;2023-07-31T08:22:24;17.20;99.90
51837;DHT22;38941;53.254;6.600;2023-07-31T08:24:25;17.30;99.90
51837;DHT22;38941;53.254;6.600;2023-07-31T08:26:26;17.40;99.90
51837;DHT22;38941;53.254;6.600;2023-07-31T08:28:27;17.40;99.90
51837;DHT22;38941;53.254;6.600;2023-07-31T08:30:27;17.60;99.90
51837;DHT22;38941;53.254;6.600;2023-07-31T08:32:28;17.70;99.90
51837;DHT22;38941;53.254;6.600;2023-07-31T08:34:29;17.70;99.90
51837;DHT22;38941;53.254;6.600;2023-07-31T08:36:29;17.70;99.90
51837;DHT22;38941;53.254;6.600;2023-07-31T08:38:30;17.70;99.90
51837;DHT22;38941;53.254;6.600;2023-07-31T08:40:31;17.70;99.90
51837;DHT22;38941;53.254;6.600;2023-07-31T08:42:32;17.80;99.90
51837;DHT22;38941;53.254;6.600;2023-07-31T08:44:33;17.80;99.90
51837;DHT22;38941;53.254;6.600;2023-07-31T08:46:35;17.80;99.90
51837;DHT22;38941;53.254;6.600;2023-07-31T08:48:37;17.90;99.90
51837;DHT22;38941;53.254;6.600;2023-07-31T08:50:38;17.90;99.90
51837;DHT22;38941;53.254;6.600;2023-07-31T08:52:39;17.90;99.90
51837;DHT22;38941;53.254;6.600;2023-07-31T08:54:40;18.00;99.90
51837;DHT22;38941;53.254;6.600;2023-07-31T08:56:42;17.90;99.90
51837;DHT22;38941;53.254;6.600;2023-07-31T08:58:44;17.90;99.90
51837;DHT22;38941;53.254;6.600;2023-07-31T09:00:47;17.90;99.90
51837;DHT22;38941;53.254;6.600;2023-07-31T09:02:56;18.00;99.90
51837;DHT22;38941;53.254;6.600;2023-07-31T09:04:57;17.80;99.90
51837;DHT22;38941;53.254;6.600;2023-07-31T09:07:03;17.80;99.90
51837;DHT22;38941;53.254;6.600;2023-07-31T09:09:04;17.80;99.90
51837;DHT22;38941;53.254;6.600;2023-07-31T09:11:05;17.80;99.90
51837;DHT22;38941;53.254;6.600;2023-07-31T09:13:06;17.90;99.90
51837;DHT22;38941;53.254;6.600;2023-07-31T09:15:07;17.90;99.90
51837;DHT22;38941;53.254;6.600;2023-07-31T09:17:09;17.90;99.90
51837;DHT22;38941;53.254;6.600;2023-07-31T09:19:09;18.00;99.90
51837;DHT22;38941;53.254;6.600;2023-07-31T09:21:10;18.00;99.90
51837;DHT22;38941;53.254;6.600;2023-07-31T09:23:12;18.00;99.90
51837;DHT22;38941;53.254;6.600;2023-07-31T09:25:26;18.00;99.90
51837;DHT22;38941;53.254;6.600;2023-07-31T09:27:27;17.20;99.90
51837;DHT22;38941;53.254;6.600;2023-07-31T09:29:29;18.10;99.90
51837;DHT22;38941;53.254;6.600;2023-07-31T09:31:39;18.10;99.90
51837;DHT22;38941;53.254;6.600;2023-07-31T09:33:54;18.00;99.90
51837;DHT22;38941;53.254;6.600;2023-07-31T09:35:58;18.00;99.90
51837;DHT22;38941;53.254;6.600;2023-07-31T09:38:03;18.00;99.90
51837;DHT22;38941;53.254;6.600;2023-07-31T09:40:04;18.00;99.90
51837;DHT22;38941;53.254;6.600;2023-07-31T09:42:05;18.00;99.90
51837;DHT22;38941;53.254;6.600;2023-07-31T09:44:06;18.00;99.90
51837;DHT22;38941;53.254;6.600;2023-07-31T09:46:13;18.00;99.90
51837;DHT22;38941;53.254;6.600;2023-07-31T09:48:17;18.00;99.90
51837;DHT22;38941;53.254;6.600;2023-07-31T09:50:21;18.20;99.90
51837;DHT22;38941;53.254;6.600;2023-07-31T09:52:22;18.30;99.90
51837;DHT22;38941;53.254;6.600;2023-07-31T09:54:22;18.40;99.90
51837;DHT22;38941;53.254;6.600;2023-07-31T09:56:23;18.40;99.90
51837;DHT22;38941;53.254;6.600;2023-07-31T09:58:25;18.50;99.90
51837;DHT22;38941;53.254;6.600;2023-07-31T10:00:30;18.50;99.90
51837;DHT22;38941;53.254;6.600;2023-07-31T10:02:32;18.50;99.90
51837;DHT22;38941;53.254;6.600;2023-07-31T10:04:33;18.50;99.90
51837;DHT22;38941;53.254;6.600;2023-07-31T10:06:34;18.50;99.90
51837;DHT22;38941;53.254;6.600;2023-07-31T10:08:36;18.50;99.90
51837;DHT22;38941;53.254;6.600;2023-07-31T10:10:37;18.50;99.90
51837;DHT22;38941;53.254;6.600;2023-07-31T10:12:42;18.50;99.90
51837;DHT22;38941;53.254;6.600;2023-07-31T10:14:44;18.50;99.90
51837;DHT22;38941;53.254;6.600;2023-07-31T10:16:45;18.60;99.90
51837;DHT22;38941;53.254;6.600;2023-07-31T10:18:46;18.60;99.90
51837;DHT22;38941;53.254;6.600;2023-07-31T10:20:48;18.60;99.90
51837;DHT22;38941;53.254;6.600;2023-07-31T10:22:49;18.70;99.90
51837;DHT22;38941;53.254;6.600;2023-07-31T10:24:52;18.60;99.90
51837;DHT22;38941;53.254;6.600;2023-07-31T10:26:58;18.60;99.90
51837;DHT22;38941;53.254;6.600;2023-07-31T10:29:00;18.60;99.90
51837;DHT22;38941;53.254;6.600;2023-07-31T10:31:02;18.50;99.90
51837;DHT22;38941;53.254;6.600;2023-07-31T10:33:05;18.60;99.90
51837;DHT22;38941;53.254;6.600;2023-07-31T10:35:08;18.60;99.90
51837;DHT22;38941;53.254;6.600;2023-07-31T10:37:27;18.60;99.90
51837;DHT22;38941;53.254;6.600;2023-07-31T10:39:36;18.70;99.90
51837;DHT22;38941;53.254;6.600;2023-07-31T10:41:38;18.70;99.90
51837;DHT22;38941;53.254;6.600;2023-07-31T10:43:38;18.60;99.90
51837;DHT22;38941;53.254;6.600;2023-07-31T10:45:42;18.60;99.90
51837;DHT22;38941;53.254;6.600;2023-07-31T10:47:44;18.60;99.90
51837;DHT22;38941;53.254;6.600;2023-07-31T10:49:46;18.50;99.90
51837;DHT22;38941;53.254;6.600;2023-07-31T10:51:47;18.50;99.90
51837;DHT22;38941;53.254;6.600;2023-07-31T10:53:48;18.60;99.90
51837;DHT22;38941;53.254;6.600;2023-07-31T10:55:49;18.60;99.90
51837;DHT22;38941;53.254;6.600;2023-07-31T10:57:53;18.70;99.90
51837;DHT22;38941;53.254;6.600;2023-07-31T11:00:20;19.20;99.90
51837;DHT22;38941;53.254;6.600;2023-07-31T11:02:26;18.80;99.90
51837;DHT22;38941;53.254;6.600;2023-07-31T11:04:27;18.90;99.90
51837;DHT22;38941;53.254;6.600;2023-07-31T11:06:29;19.10;99.90
51837;DHT22;38941;53.254;6.600;2023-07-31T11:08:32;19.20;99.90
51837;DHT22;38941;53.254;6.600;2023-07-31T11:10:33;19.40;99.90
51837;DHT22;38941;53.254;6.600;2023-07-31T11:12:33;19.60;99.90
51837;DHT22;38941;53.254;6.600;2023-07-31T11:14:34;19.80;99.90
51837;DHT22;38941;53.254;6.600;2023-07-31T11:16:35;19.90;99.90
51837;DHT22;38941;53.254;6.600;2023-07-31T11:18:37;19.80;99.90
51837;DHT22;38941;53.254;6.600;2023-07-31T11:20:38;19.90;99.90
51837;DHT22;38941;53.254;6.600;2023-07-31T11:22:39;19.80;99.90
51837;DHT22;38941;53.254;6.600;2023-07-31T11:24:40;19.80;99.90
51837;DHT22;38941;53.254;6.600;2023-07-31T11:26:52;19.80;99.90
51837;DHT22;38941;53.254;6.600;2023-07-31T11:28:53;19.70;99.90
51837;DHT22;38941;53.254;6.600;2023-07-31T11:30:55;19.70;99.90
51837;DHT22;38941;53.254;6.600;2023-07-31T11:32:56;19.70;99.90
51837;DHT22;38941;53.254;6.600;2023-07-31T11:34:57;19.70;99.90
51837;DHT22;38941;53.254;6.600;2023-07-31T11:36:58;19.70;99.90
51837;DHT22;38941;53.254;6.600;2023-07-31T11:39:09;19.70;99.90
51837;DHT22;38941;53.254;6.600;2023-07-31T11:41:10;19.70;99.90
51837;DHT22;38941;53.254;6.600;2023-07-31T11:43:10;19.70;99.90
51837;DHT22;38941;53.254;6.600;2023-07-31T11:45:17;19.60;99.90
51837;DHT22;38941;53.254;6.600;2023-07-31T11:47:18;19.50;99.90
51837;DHT22;38941;53.254;6.600;2023-07-31T11:49:18;19.50;99.90
51837;DHT22;38941;53.254;6.600;2023-07-31T11:51:20;19.40;99.90
51837;DHT22;38941;53.254;6.600;2023-07-31T11:53:35;19.40;99.90
51837;DHT22;38941;53.254;6.600;2023-07-31T11:55:37;19.40;99.90
51837;DHT22;38941;53.254;6.600;2023-07-31T11:57:41;19.50;99.90
51837;DHT22;38941;53.254;6.600;2023-07-31T11:59:43;19.50;99.90
51837;DHT22;38941;53.254;6.600;2023-07-31T12:01:44;19.50;99.90
51837;DHT22;38941;53.254;6.600;2023-07-31T12:03:46;19.50;99.90
51837;DHT22;38941;53.254;6.600;2023-07-31T12:05:47;19.50;99.90
51837;DHT22;38941;53.254;6.600;2023-07-31T12:07:53;19.50;99.90
51837;DHT22;38941;53.254;6.600;2023-07-31T12:09:55;19.60;99.90
51837;DHT22;38941;53.254;6.600;2023-07-31T12:11:55;19.70;99.90
51837;DHT22;38941;53.254;6.600;2023-07-31T12:13:56;19.80;99.90
51837;DHT22;38941;53.254;6.600;2023-07-31T12:15:59;19.80;99.90
51837;DHT22;38941;53.254;6.600;2023-07-31T12:18:04;19.90;99.90
51837;DHT22;38941;53.254;6.600;2023-07-31T12:20:05;20.00;99.90
51837;DHT22;38941;53.254;6.600;2023-07-31T12:22:14;19.90;99.90
51837;DHT22;38941;53.254;6.600;2023-07-31T12:24:18;20.00;99.90
51837;DHT22;38941;53.254;6.600;2023-07-31T12:26:19;19.90;99.90
51837;DHT22;38941;53.254;6.600;2023-07-31T12:28:22;19.90;99.90
51837;DHT22;38941;53.254;6.600;2023-07-31T12:30:33;20.00;99.90
51837;DHT22;38941;53.254;6.600;2023-07-31T12:32:35;20.00;99.90
51837;DHT22;38941;53.254;6.600;2023-07-31T12:34:42;19.90;99.90
51837;DHT22;38941;53.254;6.600;2023-07-31T12:36:44;19.90;99.90
51837;DHT22;38941;53.254;6.600;2023-07-31T12:38:45;20.00;99.90
51837;DHT22;38941;53.254;6.600;2023-07-31T12:40:46;20.10;99.90
51837;DHT22;38941;53.254;6.600;2023-07-31T12:42:47;20.10;99.90
51837;DHT22;38941;53.254;6.600;2023-07-31T12:44:47;20.20;99.90
51837;DHT22;38941;53.254;6.600;2023-07-31T12:46:48;20.20;99.90
51837;DHT22;38941;53.254;6.600;2023-07-31T12:48:49;20.20;99.90
51837;DHT22;38941;53.254;6.600;2023-07-31T12:50:51;20.20;99.90